Time;durP1;ratioP1;P1;durP2;ratioP2;P2;SDS_P1;SDS_P2;PMS_P1;PMS_P2;Temp;Humidity;BMP_temperature;BMP_pressure;BME280_temperature;BME280_humidity;BME280_pressure;Samples;Min_cycle;Max_cycle;Signal;HPM_P1;HPM_P2
2021/06/23 00:01:14;;;;;;;;;37.50;32.00;;;;;15.32;75.61;101550.03;4967466;28;45974;-71
2021/06/23 00:03:40;;;;;;;;;37.75;33.50;;;;;15.33;75.69;101541.06;4967877;28;46184;-70
2021/06/23 00:06:06;;;;;;;;;39.75;33.50;;;;;15.34;76.18;101547.22;4965219;28;45619;-67
2021/06/23 00:08:31;;;;;;;;;40.50;34.50;;;;;15.34;75.79;101545.38;4966798;28;45399;-65
2021/06/23 00:10:58;;;;;;;;;41.75;32.00;;;;;15.32;76.01;101546.53;4965334;28;45542;-65
2021/06/23 00:13:24;;;;;;;;;43.25;34.25;;;;;15.31;76.27;101547.53;4966083;28;46019;-65
2021/06/23 00:15:49;;;;;;;;;37.00;31.50;;;;;15.30;76.56;101545.84;4968515;28;45721;-70
2021/06/23 00:18:15;;;;;;;;;46.25;34.75;;;;;15.30;76.53;101545.84;4965301;28;45861;-63
2021/06/23 00:20:40;;;;;;;;;40.50;33.75;;;;;15.30;76.44;101540.53;4964748;28;45589;-71
2021/06/23 00:23:06;;;;;;;;;42.75;34.00;;;;;15.29;76.38;101542.38;4966759;28;46115;-63
2021/06/23 00:25:32;;;;;;;;;37.00;29.50;;;;;15.30;76.37;101549.34;4979199;28;45820;-67
2021/06/23 00:27:57;;;;;;;;;43.50;34.50;;;;;15.31;76.60;101545.72;4968879;28;45476;-65
2021/06/23 00:30:24;;;;;;;;;41.50;36.50;;;;;15.33;76.42;101542.88;4964376;28;45727;-66
2021/06/23 00:32:51;;;;;;;;;34.75;31.50;;;;;15.33;76.08;101540.19;4964204;28;45994;-65
2021/06/23 00:35:17;;;;;;;;;34.25;31.25;;;;;15.32;75.96;101535.88;4960938;28;46145;-72
2021/06/23 00:37:42;;;;;;;;;39.50;32.00;;;;;15.33;76.59;101548.19;4964303;28;53455;-66
2021/06/23 00:40:09;;;;;;;;;32.25;30.50;;;;;15.32;76.29;101544.69;4968877;28;45545;-71
2021/06/23 00:42:35;;;;;;;;;37.50;31.00;;;;;15.33;76.41;101551.72;4965846;28;46125;-63
2021/06/23 00:45:06;;;;;;;;;39.00;31.75;;;;;15.34;76.36;101547.22;4968030;28;45953;-72
2021/06/23 00:47:32;;;;;;;;;39.25;29.00;;;;;15.34;76.40;101549.88;4966960;28;45531;-64
2021/06/23 00:49:58;;;;;;;;;42.00;34.50;;;;;15.35;77.00;101549.69;4967796;28;45640;-71
2021/06/23 00:52:24;;;;;;;;;34.25;29.00;;;;;15.36;75.98;101553.22;4969060;28;45689;-63
2021/06/23 00:54:51;;;;;;;;;36.00;30.50;;;;;15.36;76.36;101555.88;4969800;28;45650;-70
2021/06/23 00:57:18;;;;;;;;;39.25;32.25;;;;;15.35;76.13;101556.88;4968893;28;45454;-64
2021/06/23 00:59:45;;;;;;;;;31.50;30.25;;;;;15.34;76.20;101565.84;4983532;28;45582;-66
2021/06/23 01:02:12;;;;;;;;;38.75;31.50;;;;;15.32;76.41;101559.84;4967835;28;45777;-62
2021/06/23 01:04:39;;;;;;;;;34.75;30.75;;;;;15.33;76.73;101558.84;4962684;28;45793;-71
2021/06/23 01:07:05;;;;;;;;;36.00;32.00;;;;;15.33;76.77;101558.84;4969418;28;45574;-63
2021/06/23 01:09:30;;;;;;;;;37.25;29.75;;;;;15.32;76.36;101559.84;4967060;28;45573;-70
2021/06/23 01:12:19;;;;;;;;;36.75;31.50;;;;;15.33;76.33;101558.84;4967815;28;49610;-65
2021/06/23 01:14:45;;;;;;;;;35.50;29.50;;;;;15.34;76.22;101563.19;4968817;28;45469;-63
2021/06/23 01:17:11;;;;;;;;;37.00;29.25;;;;;15.32;76.84;101558.03;4966587;28;45860;-64
2021/06/23 01:19:42;;;;;;;;;33.25;26.25;;;;;15.33;75.77;101556.19;4968716;28;45561;-66
2021/06/23 01:22:08;;;;;;;;;33.00;30.50;;;;;15.32;75.89;101554.53;4972154;28;48730;-69
2021/06/23 01:24:33;;;;;;;;;38.50;28.50;;;;;15.33;76.00;101556.19;4966568;28;45462;-71
2021/06/23 01:26:59;;;;;;;;;39.00;31.75;;;;;15.33;75.89;101556.19;4969137;28;45505;-70
2021/06/23 01:29:24;;;;;;;;;35.75;31.50;;;;;15.31;76.16;101543.03;4966662;28;45433;-67
2021/06/23 01:31:50;;;;;;;;;33.25;29.75;;;;;15.32;75.72;101554.53;4965632;28;47336;-67
2021/06/23 01:34:16;;;;;;;;;35.25;30.00;;;;;15.30;75.69;101553.84;4969044;28;45866;-66
2021/06/23 01:36:42;;;;;;;;;35.75;30.50;;;;;15.29;75.49;101555.69;4969655;28;45507;-71
2021/06/23 01:39:07;;;;;;;;;39.25;31.00;;;;;15.30;75.68;101561.84;4967543;28;45344;-65
2021/06/23 01:41:33;;;;;;;;;35.25;30.00;;;;;15.27;75.96;101561.16;4966548;28;46063;-66
2021/06/23 01:43:59;;;;;;;;;33.25;30.75;;;;;15.26;75.93;101564.81;4969193;28;45649;-67
2021/06/23 01:46:24;;;;;;;;;37.50;31.25;;;;;15.25;76.29;101563.16;4968427;28;45434;-64
2021/06/23 01:48:49;;;;;;;;;35.50;33.00;;;;;15.23;76.16;101562.50;4972069;28;45434;-65
2021/06/23 01:51:15;;;;;;;;;37.50;34.00;;;;;15.23;75.82;101559.84;4968446;28;46757;-64
2021/06/23 01:53:41;;;;;;;;;44.75;33.75;;;;;15.23;76.62;101562.50;4965312;28;45449;-67
2021/06/23 01:56:07;;;;;;;;;35.25;27.00;;;;;15.24;76.13;101555.34;4967928;28;45484;-63
2021/06/23 01:58:39;;;;;;;;;38.50;33.00;;;;;15.23;76.02;101551.84;4966674;28;45481;-64
2021/06/23 02:01:21;;;;;;;;;35.50;32.00;;;;;15.23;76.30;101553.66;4969212;28;45563;-66
2021/06/23 02:04:04;;;;;;;;;34.25;27.75;;;;;15.23;76.12;101556.31;4968945;28;45568;-66
2021/06/23 02:06:51;;;;;;;;;44.25;33.25;;;;;15.20;76.14;101546.81;4965990;28;45791;-66
2021/06/23 02:09:54;;;;;;;;;36.00;32.75;;;;;15.19;76.11;101547.00;4964910;28;45597;-65
2021/06/23 02:12:25;;;;;;;;;37.00;32.25;;;;;15.16;76.61;101549.97;4963706;28;47369;-64
2021/06/23 02:14:56;;;;;;;;;36.75;31.75;;;;;15.14;76.45;101552.78;4964820;28;45522;-64
2021/06/23 02:17:26;;;;;;;;;34.75;31.75;;;;;15.13;76.15;101545.78;4965260;28;45516;-63
2021/06/23 02:19:53;;;;;;;;;45.25;31.50;;;;;15.13;76.05;101552.94;4965020;28;45796;-63
2021/06/23 02:22:25;;;;;;;;;41.75;34.00;;;;;15.13;76.52;101545.78;4969399;28;46289;-64
2021/06/23 02:24:56;;;;;;;;;42.50;31.50;;;;;15.14;76.21;101547.47;4970531;28;45583;-66
2021/06/23 02:27:23;;;;;;;;;39.50;31.75;;;;;15.13;76.41;101551.09;4966149;28;45565;-70
2021/06/23 02:29:49;;;;;;;;;41.25;29.50;;;;;15.14;76.40;101544.81;4964779;28;45486;-64
2021/06/23 02:32:18;;;;;;;;;39.50;32.00;;;;;15.13;76.87;101545.78;4968951;28;46558;-70
2021/06/23 02:34:48;;;;;;;;;42.25;35.25;;;;;15.15;76.80;101550.97;4966074;28;46203;-64
2021/06/23 02:37:15;;;;;;;;;39.50;31.75;;;;;15.15;76.26;101551.78;4969247;28;45555;-63
2021/06/23 02:39:41;;;;;;;;;39.00;31.25;;;;;15.16;76.39;101555.31;4968703;28;45625;-66
2021/06/23 02:42:08;;;;;;;;;41.75;32.50;;;;;15.12;76.18;101560.09;4964540;28;47218;-65
2021/06/23 02:44:34;;;;;;;;;36.75;31.75;;;;;15.11;76.60;101557.59;4967870;28;46074;-65
2021/06/23 02:46:59;;;;;;;;;38.50;33.50;;;;;15.10;76.67;101554.09;4965185;28;45575;-64
2021/06/23 02:49:25;;;;;;;;;37.00;32.75;;;;;15.10;76.60;101558.59;4967027;28;45457;-70
2021/06/23 02:51:52;;;;;;;;;36.75;32.00;;;;;15.10;76.98;101564.75;4971178;28;46382;-70
2021/06/23 02:54:19;;;;;;;;;39.00;32.00;;;;;15.11;76.60;101563.78;4967316;28;45705;-66
2021/06/23 02:56:46;;;;;;;;;34.50;31.00;;;;;15.10;76.38;101555.94;4962264;28;45595;-67
2021/06/23 02:59:12;;;;;;;;;37.50;32.25;;;;;15.11;76.56;101554.91;4963840;28;45664;-66
2021/06/23 03:01:37;;;;;;;;;35.50;32.25;;;;;15.13;76.67;101556.44;4961538;28;46413;-67
2021/06/23 03:04:03;;;;;;;;;36.75;31.00;;;;;15.13;76.40;101560.94;4970711;28;45466;-67
2021/06/23 03:06:29;;;;;;;;;36.00;32.00;;;;;15.11;76.34;101558.44;4965431;28;45724;-70
2021/06/23 03:08:54;;;;;;;;;37.50;28.75;;;;;15.09;76.57;101555.09;4966723;28;45486;-64
2021/06/23 03:11:20;;;;;;;;;36.50;30.75;;;;;15.09;76.74;101555.09;4968282;28;45890;-70
2021/06/23 03:13:45;;;;;;;;;33.00;28.50;;;;;15.10;76.98;101554.09;4964555;28;45509;-71
2021/06/23 03:16:11;;;;;;;;;33.25;28.25;;;;;15.12;76.98;101551.28;4968916;28;45969;-65
2021/06/23 03:18:36;;;;;;;;;32.25;29.25;;;;;15.12;76.50;101548.63;4969525;28;45494;-70
2021/06/23 03:21:04;;;;;;;;;34.75;28.50;;;;;15.11;76.37;101545.13;4967416;28;45968;-65
2021/06/23 03:23:29;;;;;;;;;33.50;28.50;;;;;15.11;76.73;101553.13;4967209;28;45572;-66
2021/06/23 03:25:55;;;;;;;;;25.75;24.00;;;;;15.08;76.59;101545.44;4965927;28;45735;-70
2021/06/23 03:28:21;;;;;;;;;33.00;23.75;;;;;15.10;76.82;101551.44;4966983;28;45751;-71
2021/06/23 03:30:47;;;;;;;;;34.25;27.75;;;;;15.10;76.35;101556.75;4967095;28;45471;-70
2021/06/23 03:33:12;;;;;;;;;28.75;25.25;;;;;15.10;76.90;101551.44;4965311;28;45470;-64
2021/06/23 03:35:37;;;;;;;;;26.50;24.00;;;;;15.11;76.54;101558.44;4965714;28;45671;-67
2021/06/23 03:38:03;;;;;;;;;22.50;19.50;;;;;15.10;76.39;101547.94;4967821;28;45563;-65
2021/06/23 03:40:29;;;;;;;;;25.75;25.50;;;;;15.11;76.73;101553.13;4965387;28;46534;-64
2021/06/23 03:42:54;;;;;;;;;29.25;25.50;;;;;15.11;76.72;101554.91;4968371;28;45475;-71
2021/06/23 03:45:20;;;;;;;;;25.75;22.25;;;;;15.10;76.67;101550.59;4964277;28;45524;-71
2021/06/23 03:47:46;;;;;;;;;27.25;22.75;;;;;15.09;76.80;101563.09;4977467;28;45542;-63
2021/06/23 03:50:14;;;;;;;;;25.00;22.00;;;;;15.08;76.62;101556.06;4966712;28;45528;-63
2021/06/23 03:52:39;;;;;;;;;30.25;26.00;;;;;15.07;76.82;101562.41;4966952;28;45705;-70
2021/06/23 03:55:07;;;;;;;;;24.25;23.00;;;;;15.08;77.06;101561.41;4969352;28;45434;-64
2021/06/23 03:57:32;;;;;;;;;26.25;23.25;;;;;15.07;76.82;101562.41;4963858;28;45772;-64
2021/06/23 03:59:58;;;;;;;;;31.75;25.00;;;;;15.08;76.70;101564.06;4965254;28;45356;-66
2021/06/23 04:02:23;;;;;;;;;28.25;22.50;;;;;15.11;77.07;101563.78;4964696;28;45704;-66
2021/06/23 04:04:49;;;;;;;;;27.25;23.50;;;;;15.11;76.96;101566.44;4963701;28;45417;-72
2021/06/23 04:07:15;;;;;;;;;26.50;22.00;;;;;15.13;77.44;101576.91;4967499;28;45462;-68
2021/06/23 04:09:41;;;;;;;;;26.50;23.75;;;;;15.09;76.78;101557.75;4968033;28;46701;-64
2021/06/23 04:12:08;;;;;;;;;24.50;20.75;;;;;15.08;76.90;101569.38;4966538;28;45581;-63
2021/06/23 04:14:34;;;;;;;;;23.00;21.50;;;;;15.08;77.01;101569.38;4966000;28;45510;-65
2021/06/23 04:16:59;;;;;;;;;26.00;21.75;;;;;15.05;77.17;101570.53;4966448;28;45569;-66
2021/06/23 04:19:24;;;;;;;;;27.50;21.75;;;;;15.07;77.39;101567.72;4966394;28;46037;-65
2021/06/23 04:21:50;;;;;;;;;26.50;22.00;;;;;15.08;77.21;101580.03;4972152;28;45476;-66
2021/06/23 04:24:15;;;;;;;;;25.50;24.00;;;;;15.09;77.08;101581.72;4985712;28;45553;-66
2021/06/23 04:26:41;;;;;;;;;24.25;21.75;;;;;15.10;77.01;101583.38;4967572;28;45816;-64
2021/06/23 04:29:06;;;;;;;;;28.50;23.25;;;;;15.12;77.22;101586.72;4985454;28;48157;-64
2021/06/23 04:31:32;;;;;;;;;25.50;21.50;;;;;15.14;77.24;101591.91;4968645;28;45537;-71
2021/06/23 04:33:57;;;;;;;;;29.00;21.00;;;;;15.14;77.16;101590.06;4976687;28;45688;-71
2021/06/23 04:36:23;;;;;;;;;24.00;20.75;;;;;15.15;77.16;101599.72;4968481;28;45830;-66
2021/06/23 04:38:48;;;;;;;;;28.00;21.00;;;;;15.16;77.70;101596.06;4966319;28;45519;-66
2021/06/23 04:41:14;;;;;;;;;26.25;24.50;;;;;15.18;77.15;101587.91;4966170;28;45517;-71
2021/06/23 04:43:39;;;;;;;;;21.75;20.50;;;;;15.19;77.57;101595.75;4967791;28;46083;-66
2021/06/23 04:46:04;;;;;;;;;29.00;23.50;;;;;15.21;77.08;101600.94;4970565;28;45418;-66
2021/06/23 04:48:32;;;;;;;;;21.50;21.00;;;;;15.21;77.10;101596.44;4961924;28;46081;-67
2021/06/23 04:50:57;;;;;;;;;29.25;22.75;;;;;15.20;76.66;101593.91;4968889;28;45640;-70
2021/06/23 04:53:23;;;;;;;;;23.25;20.00;;;;;15.20;76.93;101592.09;4970985;28;45398;-67
2021/06/23 04:55:48;;;;;;;;;27.25;23.25;;;;;15.21;76.74;101596.44;4963599;28;45656;-71
2021/06/23 04:58:14;;;;;;;;;25.00;20.00;;;;;15.20;77.20;101594.75;4968740;28;46996;-70
2021/06/23 05:00:39;;;;;;;;;26.25;21.50;;;;;15.19;76.71;101598.41;4972817;28;45490;-67
2021/06/23 05:03:05;;;;;;;;;22.25;22.25;;;;;15.20;77.05;101599.25;4961738;28;45537;-67
2021/06/23 05:05:30;;;;;;;;;26.25;20.00;;;;;15.18;76.92;101603.88;4963846;28;46028;-70
2021/06/23 05:07:55;;;;;;;;;22.75;20.00;;;;;15.15;78.04;101602.38;4970451;28;45482;-70
2021/06/23 05:10:21;;;;;;;;;23.25;18.25;;;;;15.10;77.17;101603.84;4968577;28;45942;-70
2021/06/23 05:12:47;;;;;;;;;22.50;19.00;;;;;15.09;77.67;101608.34;4971693;28;45554;-66
2021/06/23 05:15:12;;;;;;;;;23.75;20.25;;;;;15.11;77.43;101605.50;4969645;28;45725;-66
2021/06/23 05:17:38;;;;;;;;;24.50;20.75;;;;;15.12;77.46;101608.03;4966212;28;47174;-67
2021/06/23 05:20:04;;;;;;;;;23.75;21.00;;;;;15.15;77.01;101618.34;4964138;28;45718;-66
2021/06/23 05:22:30;;;;;;;;;16.75;15.50;;;;;15.13;76.81;101615.00;4980768;28;45606;-67
2021/06/23 05:24:58;;;;;;;;;23.25;18.00;;;;;15.14;76.85;101622.03;4968999;28;45524;-68
2021/06/23 05:27:23;;;;;;;;;18.75;18.50;;;;;15.17;76.95;101623.53;4967702;28;45537;-68
2021/06/23 05:29:49;;;;;;;;;23.00;18.00;;;;;15.17;76.72;101627.03;4966047;28;45615;-69
2021/06/23 05:32:14;;;;;;;;;21.00;19.00;;;;;15.17;76.56;101624.34;4962752;28;45540;-66
2021/06/23 05:34:39;;;;;;;;;23.00;18.50;;;;;15.18;76.36;101628.72;4964910;28;45593;-65
2021/06/23 05:37:05;;;;;;;;;26.75;19.00;;;;;15.19;76.67;101634.88;4970244;28;45544;-65
2021/06/23 05:39:30;;;;;;;;;21.50;19.25;;;;;15.18;76.74;101631.38;4961895;28;46291;-66
2021/06/23 05:41:56;;;;;;;;;26.75;20.50;;;;;15.18;76.44;101628.72;4963690;28;45729;-67
2021/06/23 05:44:21;;;;;;;;;21.25;19.00;;;;;15.18;76.72;101628.72;4964299;28;48846;-66
2021/06/23 05:46:46;;;;;;;;;25.00;19.00;;;;;15.19;76.94;101633.03;4964328;28;46293;-66
2021/06/23 05:49:12;;;;;;;;;20.75;19.00;;;;;15.19;76.95;101630.38;4965738;28;45668;-66
2021/06/23 05:51:37;;;;;;;;;25.50;20.00;;;;;15.19;77.03;101625.03;4966243;28;45540;-68
2021/06/23 05:54:03;;;;;;;;;22.00;16.75;;;;;15.21;77.19;101630.22;4960815;28;45414;-68
2021/06/23 05:56:28;;;;;;;;;22.00;19.50;;;;;15.22;76.88;101634.53;4964335;28;47256;-68
2021/06/23 05:58:54;;;;;;;;;22.75;18.75;;;;;15.21;76.73;101639.03;4963593;28;45426;-68
2021/06/23 06:01:20;;;;;;;;;28.00;22.00;;;;;15.22;76.61;101645.19;4967433;28;45457;-65
2021/06/23 06:03:45;;;;;;;;;19.50;18.25;;;;;15.22;76.99;101645.19;4970703;28;45533;-67
2021/06/23 06:06:10;;;;;;;;;23.00;20.25;;;;;15.23;76.83;101644.19;4966591;28;45860;-66
2021/06/23 06:08:36;;;;;;;;;21.25;19.75;;;;;15.22;76.69;101650.53;4968229;28;45593;-68
2021/06/23 06:11:01;;;;;;;;;18.75;17.25;;;;;15.22;76.50;101654.00;4968789;28;45467;-66
2021/06/23 06:13:28;;;;;;;;;21.25;19.75;;;;;15.23;76.93;101650.38;4970282;28;45590;-67
2021/06/23 06:15:53;;;;;;;;;22.75;19.25;;;;;15.25;76.17;101659.00;4971285;28;45502;-67
2021/06/23 06:18:22;;;;;;;;;26.25;20.00;;;;;15.25;76.35;101661.69;4967356;28;45445;-68
2021/06/23 06:20:48;;;;;;;;;21.00;19.00;;;;;15.22;76.02;101662.00;4965956;28;45637;-68
2021/06/23 06:23:13;;;;;;;;;24.75;19.50;;;;;15.19;75.83;101670.31;4969159;28;45548;-66
2021/06/23 06:25:38;;;;;;;;;24.75;21.25;;;;;15.17;75.69;101674.13;4965760;28;46603;-70
2021/06/23 06:28:04;;;;;;;;;22.50;20.75;;;;;15.16;75.85;101673.28;4970901;28;45700;-66
2021/06/23 06:30:30;;;;;;;;;24.25;21.75;;;;;15.18;75.96;101667.78;4965568;28;45533;-66
2021/06/23 06:32:55;;;;;;;;;24.75;23.75;;;;;15.17;75.65;101672.28;4981137;28;45938;-68
2021/06/23 06:35:21;;;;;;;;;26.75;23.00;;;;;15.18;75.68;101681.09;4962855;28;47162;-68
2021/06/23 06:37:46;;;;;;;;;22.50;18.25;;;;;15.18;75.92;101687.28;4963196;28;45582;-71
2021/06/23 06:40:13;;;;;;;;;24.25;18.75;;;;;15.18;75.65;101683.78;4970653;28;45573;-71
2021/06/23 06:42:38;;;;;;;;;24.50;23.00;;;;;15.17;75.43;101685.59;4966995;28;45752;-71
2021/06/23 06:45:05;;;;;;;;;28.75;22.75;;;;;15.18;75.66;101687.28;4966229;28;45841;-71
2021/06/23 06:47:31;;;;;;;;;29.25;26.00;;;;;15.19;76.04;101686.28;4962259;28;45705;-72
2021/06/23 06:49:57;;;;;;;;;31.25;24.25;;;;;15.22;75.33;101683.31;4971926;28;45816;-67
2021/06/23 06:52:22;;;;;;;;;24.50;23.00;;;;;15.25;75.46;101688.31;4970617;28;45535;-66
2021/06/23 06:54:48;;;;;;;;;28.25;21.75;;;;;15.26;75.03;101695.31;4966954;28;46390;-67
2021/06/23 06:57:13;;;;;;;;;19.75;18.50;;;;;15.27;75.07;101691.66;4967774;28;45575;-68
2021/06/23 06:59:38;;;;;;;;;27.75;21.00;;;;;15.29;74.98;101693.34;4964154;28;45748;-71
2021/06/23 07:02:04;;;;;;;;;24.50;23.50;;;;;15.28;74.69;101689.81;4964487;28;45552;-69
2021/06/23 07:04:29;;;;;;;;;31.25;24.25;;;;;15.29;74.99;101693.34;4965220;28;46009;-67
2021/06/23 07:06:55;;;;;;;;;26.50;24.00;;;;;15.32;74.88;101698.34;4969443;28;45461;-71
2021/06/23 07:09:20;;;;;;;;;25.75;22.00;;;;;15.31;74.92;101696.69;4966635;28;45928;-67
2021/06/23 07:11:47;;;;;;;;;21.25;19.00;;;;;15.31;74.82;101697.53;4966482;28;45542;-68
2021/06/23 07:14:13;;;;;;;;;21.75;19.25;;;;;15.30;74.34;101697.66;4965584;28;46174;-67
2021/06/23 07:16:39;;;;;;;;;24.75;21.50;;;;;15.30;74.28;101695.00;4968167;28;45522;-68
2021/06/23 07:19:04;;;;;;;;;25.25;18.75;;;;;15.29;74.63;101709.31;4969189;28;45483;-68
2021/06/23 07:21:30;;;;;;;;;20.75;18.25;;;;;15.27;74.45;101702.31;4966008;28;45518;-69
2021/06/23 07:23:58;;;;;;;;;23.25;17.00;;;;;15.26;74.90;101695.31;4964846;28;46203;-71
2021/06/23 07:26:27;;;;;;;;;21.25;20.00;;;;;15.31;75.45;101707.34;4966492;28;50970;-68
2021/06/23 07:28:54;;;;;;;;;27.75;22.00;;;;;15.32;75.09;101707.16;4968759;28;45607;-69
2021/06/23 07:36:37;;;;;;;;;23.00;22.50;;;;;15.38;74.63;101705.69;4965920;28;45588;-72
2021/06/23 07:39:09;;;;;;;;;28.75;22.25;;;;;15.39;75.45;101708.22;4966385;28;45446;-68
2021/06/23 07:41:36;;;;;;;;;23.25;22.25;;;;;15.42;75.93;101710.56;4965560;28;45589;-69
2021/06/23 07:44:02;;;;;;;;;26.75;23.00;;;;;15.44;75.28;101708.56;4965065;28;46083;-67
2021/06/23 07:46:36;;;;;;;;;25.25;22.75;;;;;15.47;75.21;101712.75;4965424;28;45676;-68
2021/06/23 07:49:03;;;;;;;;;31.50;27.00;;;;;15.46;75.44;101705.78;4969447;28;45569;-67
2021/06/23 07:51:43;;;;;;;;;29.50;24.25;;;;;15.46;75.20;101716.44;4965509;28;45500;-68
2021/06/23 07:56:53;;;;;;;;;34.25;28.25;;;;;15.54;75.35;101708.47;4968252;28;45469;-69
2021/06/23 08:10:09;;;;;;;;;34.25;24.00;;;;;15.80;74.46;101718.28;4934683;28;45622;-67
2021/06/23 08:12:44;;;;;;;;;26.00;22.00;;;;;15.85;74.13;101722.16;4930455;28;45932;-71
2021/06/23 08:15:10;;;;;;;;;29.00;24.75;;;;;15.90;73.25;101714.50;4925927;28;45437;-68
2021/06/23 08:17:36;;;;;;;;;31.25;26.50;;;;;15.99;73.66;101717.19;4932002;28;46048;-67
2021/06/23 08:20:03;;;;;;;;;27.75;24.50;;;;;16.07;73.29;101717.22;4923611;28;45514;-69
2021/06/23 08:22:29;;;;;;;;;22.50;22.25;;;;;16.16;73.25;101712.75;4921982;28;45627;-69
2021/06/23 08:24:54;;;;;;;;;26.25;23.75;;;;;16.23;72.80;101711.13;4933573;28;45553;-68
2021/06/23 08:27:19;;;;;;;;;28.50;25.00;;;;;16.28;72.24;101708.78;4931221;28;45883;-67
2021/06/23 08:29:45;;;;;;;;;24.50;23.00;;;;;16.36;72.11;101708.81;4927629;28;45499;-68
2021/06/23 08:32:10;;;;;;;;;28.00;23.50;;;;;16.40;71.67;101712.81;4925050;28;45613;-69
2021/06/23 08:34:36;;;;;;;;;30.25;26.00;;;;;16.47;71.57;101716.50;4930279;28;45558;-68
2021/06/23 08:37:02;;;;;;;;;26.50;23.00;;;;;16.52;71.64;101706.16;4933559;28;45585;-69
2021/06/23 08:39:28;;;;;;;;;27.25;26.50;;;;;16.55;71.53;101716.50;4955958;28;45791;-68
2021/06/23 08:41:53;;;;;;;;;25.25;23.00;;;;;16.60;71.61;101713.34;4967343;28;45453;-69
2021/06/23 08:44:19;;;;;;;;;29.75;26.75;;;;;16.66;71.50;101703.84;4971630;28;45515;-65
2021/06/23 08:46:48;;;;;;;;;32.50;25.25;;;;;16.74;71.33;101702.03;4969148;28;45601;-67
2021/06/23 08:49:14;;;;;;;;;27.00;23.75;;;;;16.84;71.39;101701.88;4966367;28;45560;-67
2021/06/23 08:51:41;;;;;;;;;26.00;25.00;;;;;16.89;70.47;101710.22;4973897;28;45720;-67
2021/06/23 08:54:06;;;;;;;;;24.50;22.50;;;;;16.91;71.34;101710.91;4968845;28;46197;-70
2021/06/23 08:56:32;;;;;;;;;29.25;22.00;;;;;16.96;71.03;101710.38;4957514;28;45748;-67
2021/06/23 08:58:57;;;;;;;;;23.75;22.25;;;;;17.01;70.25;101717.88;4973721;28;45332;-67
2021/06/23 09:01:23;;;;;;;;;28.00;25.50;;;;;17.01;69.94;101717.88;4975113;28;45834;-70
2021/06/23 09:04:17;;;;;;;;;27.50;24.75;;;;;17.01;70.10;101716.03;4977149;28;46658;-68
2021/06/23 09:06:50;;;;;;;;;25.50;21.50;;;;;16.96;70.22;101711.22;4978786;28;52260;-70
2021/06/23 09:09:22;;;;;;;;;27.25;22.50;;;;;16.96;69.76;101716.56;4974936;28;45562;-67
2021/06/23 09:11:59;;;;;;;;;26.50;24.25;;;;;16.99;69.80;101718.06;4963314;28;45658;-68
2021/06/23 09:14:27;;;;;;;;;24.50;23.00;;;;;17.05;69.95;101713.88;4978431;28;45880;-67
2021/06/23 09:17:11;;;;;;;;;25.25;22.75;;;;;17.08;69.57;101719.72;4960281;28;45604;-69
2021/06/23 09:19:38;;;;;;;;;26.75;24.50;;;;;17.12;69.73;101726.41;4968979;28;46287;-69
2021/06/23 09:22:05;;;;;;;;;25.50;25.25;;;;;17.17;68.88;101724.06;4971776;28;45531;-68
2021/06/23 09:24:38;;;;;;;;;28.25;21.50;;;;;17.15;69.69;101730.56;4962079;28;46165;-70
2021/06/23 09:27:24;;;;;;;;;28.75;24.00;;;;;17.16;69.13;101719.72;4962287;28;45642;-70
2021/06/23 09:29:52;;;;;;;;;27.50;22.25;;;;;17.23;69.62;101717.19;4967850;28;45509;-67
2021/06/23 09:32:21;;;;;;;;;22.25;22.25;;;;;17.31;69.25;101711.00;4969836;28;46195;-69
2021/06/23 09:34:53;;;;;;;;;25.75;23.50;;;;;17.39;68.79;101717.19;4965071;28;46314;-68
2021/06/23 09:37:31;;;;;;;;;29.00;26.50;;;;;17.44;68.53;101716.66;4969488;28;45571;-68
2021/06/23 09:40:12;;;;;;;;;28.50;23.75;;;;;17.51;68.74;101720.31;4978213;28;45546;-70
2021/06/23 09:42:42;;;;;;;;;28.25;25.25;;;;;17.58;68.70;101715.97;4968009;28;45587;-67
2021/06/23 09:45:11;;;;;;;;;22.50;22.50;;;;;17.67;68.30;101716.75;4966878;28;45552;-72
2021/06/23 09:47:38;;;;;;;;;27.00;23.75;;;;;17.75;68.28;101715.91;4968727;28;45457;-71
2021/06/23 09:50:11;;;;;;;;;24.00;23.00;;;;;17.82;67.88;101720.41;4968833;28;45525;-67
2021/06/23 09:52:53;;;;;;;;;28.50;25.75;;;;;17.87;67.34;101724.41;4970014;28;45523;-66
2021/06/23 09:55:18;;;;;;;;;29.50;27.75;;;;;17.90;67.19;101719.53;4973752;28;46338;-71
2021/06/23 09:58:20;;;;;;;;;35.25;26.25;;;;;17.91;67.59;101723.06;4973342;28;45665;-73
2021/06/23 10:01:03;;;;;;;;;24.75;22.50;;;;;17.94;67.00;101728.06;4969903;28;45644;-69
2021/06/23 10:03:34;;;;;;;;;26.50;23.25;;;;;17.88;67.18;101726.06;4968188;28;46058;-68
2021/06/23 10:06:19;;;;;;;;;30.75;26.25;;;;;17.84;67.71;101726.41;4963575;28;45714;-67
2021/06/23 10:08:45;;;;;;;;;29.50;26.25;;;;;17.82;67.33;101723.06;4963786;28;45778;-66
2021/06/23 10:11:10;;;;;;;;;27.50;26.00;;;;;17.78;66.92;101716.41;4963333;28;45950;-68
2021/06/23 10:13:36;;;;;;;;;24.25;21.00;;;;;17.75;66.99;101722.06;4961393;28;46175;-70
2021/06/23 10:16:01;;;;;;;;;27.75;25.50;;;;;17.74;67.78;101723.09;4965030;28;45987;-67
2021/06/23 10:18:28;;;;;;;;;24.75;22.50;;;;;17.73;67.62;101725.91;4966884;28;45510;-69
2021/06/23 10:20:54;;;;;;;;;25.75;24.00;;;;;17.70;68.11;101727.09;4958353;28;45529;-68
2021/06/23 10:23:20;;;;;;;;;25.25;24.00;;;;;17.69;67.68;101727.28;4962226;28;45929;-67
2021/06/23 10:25:45;;;;;;;;;23.75;22.00;;;;;17.68;67.78;101731.81;4965081;28;45809;-67
2021/06/23 10:28:12;;;;;;;;;22.00;19.25;;;;;17.68;67.45;101733.63;4970691;28;45973;-66
2021/06/23 10:30:37;;;;;;;;;26.25;24.50;;;;;17.68;67.94;101728.28;4963783;28;45538;-68
2021/06/23 10:33:03;;;;;;;;;27.50;24.25;;;;;17.74;67.66;101731.09;4968385;28;45541;-71
2021/06/23 10:35:28;;;;;;;;;27.50;23.75;;;;;17.79;67.90;101734.09;4961210;28;46218;-67
2021/06/23 10:37:55;;;;;;;;;25.25;22.75;;;;;17.88;68.31;101736.75;4968714;28;45793;-71
2021/06/23 10:40:22;;;;;;;;;26.75;23.50;;;;;17.96;67.46;101734.91;4960038;28;45738;-64
2021/06/23 10:42:48;;;;;;;;;26.50;24.25;;;;;18.00;67.35;101736.22;4964827;28;45552;-67
2021/06/23 10:45:15;;;;;;;;;26.50;23.25;;;;;18.04;67.53;101726.84;4966226;28;46123;-70
2021/06/23 10:47:43;;;;;;;;;32.50;27.25;;;;;18.11;67.14;101729.66;4967672;28;45626;-70
2021/06/23 10:50:31;;;;;;;;;28.00;24.25;;;;;18.19;66.78;101734.94;4957247;28;45541;-71
2021/06/23 10:52:57;;;;;;;;;24.75;24.50;;;;;18.24;66.67;101737.94;4963074;28;45910;-67
2021/06/23 10:55:22;;;;;;;;;32.25;28.75;;;;;18.28;66.13;101743.78;4961735;28;45601;-72
2021/06/23 10:57:53;;;;;;;;;28.50;24.50;;;;;18.24;66.48;101747.81;4964833;28;45536;-68
2021/06/23 11:00:21;;;;;;;;;29.25;26.25;;;;;18.20;66.00;101747.34;4966763;28;45810;-70
2021/06/23 11:02:58;;;;;;;;;27.25;22.50;;;;;18.16;66.95;101748.69;4967960;28;45410;-67
2021/06/23 11:05:31;;;;;;;;;28.00;25.50;;;;;18.21;66.41;101749.00;4961643;28;45956;-67
2021/06/23 11:07:58;;;;;;;;;29.75;24.00;;;;;18.19;65.72;101742.16;4976990;28;45438;-68
2021/06/23 11:10:31;;;;;;;;;28.25;26.50;;;;;18.21;66.69;101754.34;4973272;28;45552;-72
2021/06/23 11:13:04;;;;;;;;;30.00;25.25;;;;;18.21;66.98;101757.03;4972716;28;45601;-68
2021/06/23 11:15:35;;;;;;;;;26.75;22.50;;;;;18.21;66.35;101759.69;4963305;28;45511;-72
2021/06/23 11:18:25;;;;;;;;;25.00;23.00;;;;;18.19;65.75;101764.38;4976564;28;45488;-67
2021/06/23 11:21:14;;;;;;;;;26.25;22.75;;;;;18.11;66.31;101769.78;4965089;28;45621;-68
2021/06/23 11:23:49;;;;;;;;;26.25;25.25;;;;;18.05;66.02;101767.78;4968425;28;46021;-71
2021/06/23 11:26:18;;;;;;;;;30.75;22.50;;;;;18.04;66.60;101758.94;4967276;28;45603;-67
2021/06/23 11:28:43;;;;;;;;;30.50;25.75;;;;;18.02;66.54;101768.97;4964025;28;46179;-68
2021/06/23 11:31:11;;;;;;;;;33.00;27.75;;;;;18.00;66.22;101772.81;4968124;28;45572;-66